Time;durP1;ratioP1;P1;durP2;ratioP2;P2;SDS_P1;SDS_P2;PMS_P1;PMS_P2;Temp;Humidity;BMP_temperature;BMP_pressure;BME280_temperature;BME280_humidity;BME280_pressure;Samples;Min_cycle;Max_cycle;Signal;HPM_P1;HPM_P2
2022/07/02 14:03:00;;;;;;;2.72;2.60;;;36.70;36.40;;;29.43;35.11;95847.91;5047613;28;20332;-48
2022/07/02 14:05:26;;;;;;;3.28;2.40;;;36.50;34.00;;;30.02;34.57;95851.44;5027395;28;20142;-49
2022/07/02 14:07:52;;;;;;;2.88;2.67;;;37.10;32.50;;;30.19;34.18;95848.03;5026559;28;20036;-47
2022/07/02 14:10:18;;;;;;;3.20;2.92;;;37.70;31.20;;;29.83;36.29;95851.75;5026640;28;20021;-48
2022/07/02 14:12:43;;;;;;;3.75;3.55;;;38.10;30.40;;;29.95;34.43;95857.69;5009765;28;20025;-47
2022/07/02 14:15:12;;;;;;;2.60;2.50;;;38.50;29.50;;;30.75;32.36;95856.91;5007680;28;20052;-47
2022/07/02 14:17:38;;;;;;;3.67;3.47;;;39.10;29.00;;;30.34;32.66;95850.88;5007060;28;20464;-49
2022/07/02 14:20:08;;;;;;;3.30;2.92;;;39.40;28.10;;;30.61;32.74;95856.84;5006531;28;20037;-48
2022/07/02 14:22:37;;;;;;;3.63;2.97;;;39.90;27.40;;;30.02;33.36;95856.94;5020283;28;20057;-51
2022/07/02 14:25:03;;;;;;;2.55;2.35;;;40.20;26.80;;;30.19;32.80;95853.53;5017555;28;20021;-50
2022/07/02 14:27:29;;;;;;;2.90;2.80;;;40.60;26.30;;;30.32;32.76;95843.00;5009317;28;20037;-55
2022/07/02 14:30:02;;;;;;;3.22;3.03;;;40.80;25.90;;;29.92;32.38;95841.97;5008007;28;20357;-47
2022/07/02 14:32:30;;;;;;;2.80;2.67;;;41.10;25.40;;;30.63;32.93;95838.00;5009706;28;20044;-52
2022/07/02 14:34:56;;;;;;;3.78;2.75;;;41.30;25.30;;;31.24;31.29;95843.63;5014473;28;20024;-52
2022/07/02 14:37:31;;;;;;;3.45;3.25;;;41.50;25.10;;;31.30;31.18;95842.06;4991172;28;20029;-47
2022/07/02 14:39:57;;;;;;;3.72;3.53;;;41.70;24.70;;;31.88;30.37;95838.09;5004689;28;20102;-49
2022/07/02 14:42:23;;;;;;;3.00;2.90;;;42.00;24.60;;;31.58;29.41;95836.56;5008622;28;20128;-48
2022/07/02 14:44:49;;;;;;;3.33;3.13;;;42.20;24.10;;;31.54;29.25;95830.28;5026842;28;20033;-49
2022/07/02 14:47:24;;;;;;;3.40;3.20;;;42.50;23.70;;;32.23;29.27;95830.94;5017819;28;20045;-47
2022/07/02 14:49:49;;;;;;;3.67;3.47;;;43.00;23.30;;;31.96;30.43;95827.88;5023674;28;20419;-47
2022/07/02 14:52:19;;;;;;;3.42;3.22;;;43.50;23.10;;;32.12;30.14;95830.19;5021813;28;20026;-47
2022/07/02 14:54:50;;;;;;;3.63;3.25;;;43.90;22.80;;;32.34;28.84;95828.94;5020272;28;20124;-51
2022/07/02 14:57:16;;;;;;;3.72;3.42;;;44.30;22.50;;;32.87;28.98;95827.88;5024880;28;20082;-47
2022/07/02 14:59:45;;;;;;;3.53;3.33;;;44.90;22.30;;;33.09;29.16;95825.00;5026517;28;20033;-47
2022/07/02 15:02:14;;;;;;;4.07;3.88;;;45.40;22.00;;;33.20;28.38;95822.97;5015006;28;20045;-49
2022/07/02 15:04:40;;;;;;;3.72;3.42;;;46.00;21.60;;;32.94;28.11;95818.78;4943562;28;24941;-52
2022/07/02 15:07:08;;;;;;;4.50;4.15;;;46.30;21.10;;;32.88;27.31;95820.41;4976282;28;20397;-47
2022/07/02 15:09:37;;;;;;;3.72;3.53;;;46.30;20.70;;;33.08;27.89;95818.72;4966531;28;20030;-48
2022/07/02 15:12:04;;;;;;;4.35;4.15;;;46.50;20.60;;;33.68;27.23;95819.41;4967741;28;20026;-51
2022/07/02 15:17:17;;;;;;;4.57;4.28;;;47.30;19.90;;;32.86;28.50;95823.56;4973722;28;20620;-51
2022/07/02 15:19:46;;;;;;;4.18;3.97;;;47.70;19.80;;;33.40;28.06;95812.94;4971909;28;20046;-47
2022/07/02 15:22:14;;;;;;;4.00;3.80;;;48.00;19.40;;;33.14;26.09;95810.78;4958659;28;20125;-49
2022/07/02 15:24:46;;;;;;;4.88;4.57;;;48.50;18.90;;;33.27;26.07;95806.34;4962350;28;20093;-47
2022/07/02 15:27:15;;;;;;;5.07;4.75;;;48.80;18.50;;;33.96;25.38;95815.56;4950444;28;20030;-47
2022/07/02 15:29:41;;;;;;;5.88;5.57;;;49.30;18.20;;;34.17;26.12;95802.75;4954579;28;20384;-47
2022/07/02 15:32:12;;;;;;;6.13;5.63;;;50.00;18.00;;;33.95;26.97;95805.72;4943236;28;20053;-48
2022/07/02 15:34:46;;;;;;;6.15;5.85;;;50.60;17.70;;;34.87;26.68;95805.78;4956779;28;20042;-56
2022/07/02 15:37:13;;;;;;;8.27;7.88;;;51.50;17.50;;;35.35;25.15;95806.63;4954284;28;20405;-48
2022/07/02 15:39:47;;;;;;;8.38;7.93;;;52.30;17.10;;;35.06;25.55;95795.25;4952657;28;20061;-50
2022/07/02 15:42:20;;;;;;;10.13;9.52;;;52.90;16.80;;;34.36;25.64;95791.06;4970109;28;20034;-49
2022/07/02 15:44:53;;;;;;;9.40;8.82;;;53.30;16.30;;;34.75;24.01;95793.28;4971735;28;20022;-48
2022/07/02 15:47:20;;;;;;;10.63;9.88;;;53.50;15.90;;;34.94;24.63;95786.31;4973121;28;20113;-48
2022/07/02 15:49:49;;;;;;;10.10;9.50;;;53.60;15.70;;;35.57;25.36;95787.69;4955848;28;20588;-47
2022/07/02 15:53:00;;;;;;;9.30;8.80;;;53.90;15.80;;;36.35;24.37;95786.22;4962371;28;20026;-47
2022/07/02 15:55:54;;;;;;;9.07;8.57;;;54.20;15.90;;;35.27;25.42;95789.38;4959065;28;20053;-47
2022/07/02 15:58:48;;;;;;;8.75;8.25;;;54.70;15.80;;;34.61;25.48;95784.44;4928759;28;20029;-52
2022/07/02 16:01:15;;;;;;;10.40;9.90;;;54.40;15.50;;;35.09;25.17;95778.59;4961282;28;20051;-46
2022/07/02 16:04:03;;;;;;;8.80;8.40;;;54.30;15.10;;;35.63;25.31;95781.28;4960849;28;20026;-48
2022/07/02 16:06:34;;;;;;;9.15;8.75;;;54.30;15.30;;;35.71;23.56;95776.38;4954094;28;20061;-57
2022/07/02 16:09:02;;;;;;;9.55;9.05;;;54.50;15.00;;;35.93;24.25;95785.06;4951573;28;20058;-46
2022/07/02 16:11:29;;;;;;;10.98;10.38;;;54.60;15.00;;;36.33;23.88;95785.09;4967324;28;20093;-52
2022/07/02 16:13:57;;;;;;;10.77;10.20;;;54.80;14.90;;;36.59;24.37;95786.13;4965628;28;20026;-49
2022/07/02 16:16:23;;;;;;;10.02;9.35;;;55.00;14.80;;;36.33;24.28;95783.09;4950557;28;20031;-49
2022/07/02 16:18:52;;;;;;;9.15;8.70;;;55.30;14.70;;;35.28;25.25;95771.56;4948143;28;20114;-50
2022/07/02 16:21:19;;;;;;;8.47;8.07;;;55.40;14.60;;;35.88;23.81;95775.25;4971914;28;20080;-49
2022/07/02 16:23:45;;;;;;;8.85;8.45;;;55.20;14.40;;;36.35;23.58;95769.59;4958896;28;20057;-46
2022/07/02 16:26:13;;;;;;;8.55;8.10;;;55.20;14.40;;;36.41;23.52;95766.28;4951887;28;20077;-46
2022/07/02 16:28:50;;;;;;;9.65;9.15;;;55.30;14.20;;;36.50;23.68;95761.75;4952705;28;20030;-46
2022/07/02 16:31:23;;;;;;;8.95;8.32;;;55.40;14.20;;;36.27;25.37;95773.72;4943093;28;20031;-48
2022/07/02 16:34:50;;;;;;;7.43;7.03;;;55.30;14.90;;;35.87;26.19;95764.59;4965649;28;20031;-49
2022/07/02 16:37:28;;;;;;;7.43;7.03;;;55.10;14.50;;;36.32;26.49;95759.34;4971629;28;20386;-49
2022/07/02 16:40:05;;;;;;;8.88;8.40;;;55.10;14.80;;;36.06;24.53;95760.28;4964907;28;20041;-47
2022/07/02 16:42:38;;;;;;;9.35;8.85;;;55.20;14.60;;;36.40;24.35;95754.41;4959054;28;20037;-47
2022/07/02 16:45:08;;;;;;;8.75;8.25;;;55.20;14.50;;;36.19;24.77;95750.09;4948187;28;20172;-46
2022/07/02 16:47:47;;;;;;;8.82;8.32;;;55.20;14.40;;;36.30;24.34;95750.66;4952871;28;20454;-48
2022/07/02 16:50:20;;;;;;;;;;;55.20;14.50;;;36.51;24.11;95751.44;4962006;28;20031;-52
2022/07/02 16:53:04;;;;;;;9.02;8.52;;;55.20;14.70;;;36.79;24.54;95745.25;4941529;28;20384;-48
2022/07/02 16:55:31;;;;;;;9.13;8.48;;;55.70;14.60;;;37.15;25.75;95749.97;4950074;28;20080;-50
2022/07/02 16:58:01;;;;;;;9.07;8.68;;;55.90;14.70;;;36.81;25.64;95745.59;4959962;28;20029;-52
2022/07/02 17:00:32;;;;;;;8.73;8.32;;;56.00;14.60;;;36.85;24.41;95745.50;4957387;28;20430;-54
2022/07/02 17:02:58;;;;;;;9.13;8.63;;;56.10;14.30;;;36.44;24.59;95748.78;4953050;28;20112;-49
2022/07/02 17:05:27;;;;;;;8.30;7.80;;;56.10;14.20;;;35.71;25.31;95743.13;4969903;28;20469;-52
2022/07/02 17:07:57;;;;;;;8.07;7.63;;;56.00;14.20;;;34.99;25.98;95738.78;4953954;28;20124;-48
2022/07/02 17:13:09;;;;;;;5.55;5.25;;;55.70;14.00;;;34.70;27.35;95737.69;4968346;28;20084;-49
2022/07/02 17:15:35;;;;;;;3.30;3.10;;;55.50;14.00;;;34.00;28.08;95736.22;4953170;28;20054;-48
2022/07/02 17:18:05;;;;;;;4.50;2.50;;;54.40;14.00;;;33.56;29.71;95740.63;4951566;28;20034;-49
2022/07/02 17:20:31;;;;;;;2.40;2.20;;;51.80;15.20;;;33.13;29.98;95740.25;4951153;28;20030;-48
2022/07/02 17:23:03;;;;;;;1.70;1.60;;;48.80;16.60;;;32.22;30.29;95744.75;4951045;28;20038;-49
2022/07/02 17:25:31;;;;;;;4.43;1.70;;;45.90;17.80;;;31.44;34.65;95740.28;4950822;28;20026;-50
2022/07/02 17:27:59;;;;;;;2.50;1.50;;;43.50;19.60;;;30.81;36.48;95736.38;4957586;28;20057;-50
2022/07/02 17:30:25;;;;;;;1.50;1.40;;;41.50;21.30;;;29.94;34.54;95745.53;4970671;28;20096;-51
2022/07/02 17:32:52;;;;;;;3.13;1.50;;;39.70;22.10;;;29.56;37.17;95730.41;4968676;28;20034;-51
2022/07/02 17:35:21;;;;;;;2.67;1.33;;;38.20;23.30;;;28.98;38.33;95738.22;4964617;28;20014;-48
2022/07/02 17:37:49;;;;;;;1.60;1.50;;;37.00;24.70;;;28.10;39.17;95734.22;4959778;28;20456;-47
2022/07/02 17:40:15;;;;;;;1.52;1.30;;;35.90;25.50;;;27.64;39.60;95730.88;4966147;28;20399;-47
2022/07/02 17:42:41;;;;;;;2.17;1.25;;;34.90;26.30;;;27.42;40.94;95727.91;4966594;28;20037;-49
2022/07/02 17:45:07;;;;;;;1.52;1.23;;;34.00;27.20;;;27.11;42.36;95720.78;4965608;28;20109;-47
2022/07/02 17:47:38;;;;;;;2.50;1.30;;;33.20;28.00;;;26.84;42.32;95724.63;4964251;28;20125;-49
2022/07/02 17:50:10;;;;;;;2.15;1.30;;;32.60;29.00;;;26.58;44.33;95725.38;4960723;28;20553;-51
2022/07/02 17:52:37;;;;;;;1.10;1.10;;;32.10;30.00;;;26.37;44.75;95728.50;4965535;28;20129;-59
2022/07/02 17:55:06;;;;;;;1.25;1.15;;;31.50;30.30;;;26.13;43.87;95724.94;4932067;28;20037;-48
2022/07/02 17:57:32;;;;;;;1.33;1.10;;;31.10;31.10;;;25.92;44.56;95725.31;4961810;28;20636;-46
2022/07/02 17:59:58;;;;;;;2.17;1.27;;;30.70;31.60;;;25.51;44.42;95724.03;4950239;28;20093;-47
2022/07/02 18:02:28;;;;;;;2.65;1.05;;;30.40;32.10;;;25.26;45.24;95727.03;4963720;28;20065;-46
2022/07/02 18:04:54;;;;;;;2.55;1.00;;;30.10;32.60;;;25.03;45.36;95724.13;4967720;28;20038;-46
2022/07/02 18:07:26;;;;;;;4.07;1.10;;;29.80;32.80;;;24.99;46.06;95725.19;4967438;28;20033;-49
2022/07/02 18:09:58;;;;;;;1.27;1.17;;;29.60;33.70;;;24.93;46.48;95720.00;4952329;28;20375;-47
2022/07/02 18:12:24;;;;;;;1.30;1.20;;;29.40;34.10;;;24.83;46.98;95727.94;4953537;28;20031;-58
2022/07/02 18:14:53;;;;;;;1.27;1.17;;;29.10;34.30;;;24.77;48.08;95719.25;4965231;28;20031;-52
2022/07/02 18:17:19;;;;;;;3.00;1.10;;;29.00;35.10;;;24.61;53.12;95727.41;4968233;28;20100;-51
2022/07/02 18:19:51;;;;;;;1.17;1.08;;;28.80;36.00;;;24.44;50.91;95725.84;4954932;28;20142;-46
2022/07/02 18:22:17;;;;;;;3.75;1.02;;;28.60;36.90;;;24.18;50.72;95726.28;4941589;28;20030;-47
2022/07/02 18:24:43;;;;;;;4.07;1.20;;;28.40;37.00;;;24.10;52.43;95720.97;4933991;29;20042;-56
2022/07/02 18:27:09;;;;;;;3.25;1.15;;;28.30;38.20;;;23.96;53.33;95718.69;4958186;28;20081;-49
2022/07/02 18:29:38;;;;;;;1.85;1.00;;;28.10;38.20;;;23.72;52.78;95728.53;4950220;28;20706;-45
2022/07/02 18:32:04;;;;;;;1.55;1.25;;;28.00;38.60;;;23.59;52.84;95731.59;4951591;28;20022;-47
2022/07/02 18:34:32;;;;;;;1.60;1.00;;;27.80;38.70;;;23.40;52.53;95726.78;4944660;28;20029;-51
2022/07/02 18:36:58;;;;;;;2.92;1.05;;;27.70;38.90;;;23.24;52.82;95716.59;4965493;28;20072;-45
2022/07/02 18:39:24;;;;;;;1.98;1.20;;;27.50;39.20;;;23.09;53.21;95714.59;4950208;29;20034;-47
2022/07/02 18:41:50;;;;;;;2.08;1.15;;;27.30;39.30;;;22.96;54.25;95721.16;4951554;29;20038;-49
2022/07/02 18:44:16;;;;;;;2.25;1.00;;;27.20;39.80;;;22.84;54.93;95720.00;4958776;28;20023;-47
2022/07/02 18:46:44;;;;;;;1.77;1.20;;;27.00;40.10;;;22.64;55.57;95723.63;4949886;29;20027;-46
2022/07/02 18:49:10;;;;;;;1.23;0.93;;;26.80;40.60;;;22.37;57.69;95719.63;4960753;28;20023;-48
2022/07/02 18:51:39;;;;;;;1.65;1.00;;;26.70;41.00;;;22.13;57.13;95723.84;4954761;28;20092;-46
2022/07/02 18:54:08;;;;;;;1.20;1.00;;;26.40;41.30;;;21.93;59.00;95724.69;4960272;28;20033;-49
2022/07/02 18:56:34;;;;;;;2.15;1.00;;;26.20;41.90;;;21.83;58.25;95731.31;4953940;28;20493;-47
2022/07/02 18:59:02;;;;;;;1.80;0.90;;;26.10;42.30;;;21.68;60.80;95734.63;4961474;28;20077;-48
2022/07/02 19:01:28;;;;;;;1.60;1.05;;;25.90;42.70;;;21.54;60.29;95720.56;4959818;28;20046;-49
2022/07/02 19:03:58;;;;;;;1.45;0.98;;;25.70;43.20;;;21.46;60.98;95711.38;4972940;28;20084;-51
2022/07/02 19:06:24;;;;;;;2.35;1.00;;;25.60;43.80;;;21.44;60.55;95725.25;4973379;28;20113;-49
2022/07/02 19:08:50;;;;;;;1.50;1.00;;;25.40;43.90;;;21.41;60.72;95719.72;4972778;28;20068;-52
2022/07/02 19:11:16;;;;;;;1.55;1.30;;;25.30;44.30;;;21.24;62.78;95721.38;4965672;28;20796;-47
2022/07/02 19:13:42;;;;;;;0.95;0.90;;;25.20;44.80;;;21.07;63.19;95729.63;4954447;28;20033;-46
2022/07/02 19:16:08;;;;;;;2.45;1.20;;;25.00;45.20;;;21.00;62.90;95723.94;4961974;28;20022;-55
2022/07/02 19:18:34;;;;;;;2.45;1.10;;;24.90;45.50;;;20.86;64.14;95723.38;4962805;28;20424;-47
2022/07/02 19:21:02;;;;;;;1.67;1.02;;;24.80;45.90;;;20.76;64.15;95728.03;4964285;28;20026;-50
2022/07/02 19:23:28;;;;;;;2.28;1.30;;;24.70;46.40;;;20.68;64.33;95726.19;4953904;28;20022;-45
2022/07/02 19:25:54;;;;;;;1.27;1.17;;;24.50;46.70;;;20.55;65.30;95722.53;4971582;28;20036;-46
2022/07/02 19:31:09;;;;;;;1.10;0.98;;;24.30;47.60;;;20.17;66.43;95729.81;4986069;28;20467;-51
2022/07/02 19:33:35;;;;;;;2.40;1.20;;;24.10;47.90;;;20.12;63.05;95725.38;4974478;28;20391;-54
2022/07/02 19:36:01;;;;;;;3.08;1.20;;;23.90;47.70;;;20.17;63.99;95727.91;4988646;28;20037;-51
2022/07/02 19:38:30;;;;;;;1.80;1.10;;;23.90;47.90;;;20.14;64.87;95723.13;5006143;28;20021;-50
2022/07/02 19:41:02;;;;;;;2.58;1.25;;;23.80;48.10;;;20.05;66.83;95731.25;5013517;28;20033;-49
2022/07/02 19:43:28;;;;;;;1.65;1.13;;;23.80;48.80;;;19.85;68.15;95737.34;5031175;28;20480;-45
2022/07/02 19:45:54;;;;;;;1.42;1.33;;;23.70;48.80;;;19.60;68.79;95747.81;5013183;28;20124;-47
2022/07/02 19:48:24;;;;;;;1.40;1.30;;;23.50;49.10;;;19.43;69.76;95739.72;5029984;28;20487;-53
2022/07/02 19:50:55;;;;;;;1.70;1.50;;;23.40;49.50;;;19.33;69.00;95740.78;4955889;28;21886;-47
2022/07/02 19:53:21;;;;;;;2.35;1.35;;;23.20;49.90;;;19.21;69.54;95743.34;4969421;28;20039;-47
2022/07/02 19:55:50;;;;;;;2.65;1.33;;;23.10;50.10;;;19.10;71.39;95745.53;4993354;28;20048;-46
2022/07/02 19:58:16;;;;;;;1.70;1.52;;;23.00;50.50;;;19.00;71.91;95740.44;4978296;28;20025;-44
2022/07/02 20:00:45;;;;;;;2.80;1.50;;;22.90;50.80;;;18.83;71.84;95754.66;4973181;28;20036;-51
2022/07/02 20:03:13;;;;;;;2.50;1.60;;;22.70;51.40;;;18.69;73.06;95753.97;4943668;28;20060;-48
2022/07/02 20:05:39;;;;;;;2.38;1.67;;;22.60;51.70;;;18.55;73.61;95764.06;4980625;28;20037;-47
2022/07/02 20:08:13;;;;;;;3.53;2.08;;;22.40;51.80;;;18.42;73.41;95765.75;4977843;28;20389;-46
2022/07/02 20:10:42;;;;;;;2.67;1.70;;;22.30;52.20;;;18.33;73.09;95765.69;4977354;28;20023;-46
2022/07/02 20:13:11;;;;;;;2.65;1.88;;;22.20;52.40;;;18.27;73.26;95761.56;4982707;28;20030;-48
2022/07/02 20:15:40;;;;;;;3.67;1.88;;;22.10;52.90;;;18.23;73.47;95771.34;4970511;28;20026;-53
2022/07/02 20:18:16;;;;;;;3.47;1.58;;;22.00;53.00;;;18.08;74.44;95764.44;4979127;28;20026;-47
2022/07/02 20:20:43;;;;;;;4.05;1.70;;;21.80;53.50;;;18.02;74.61;95779.16;4990967;28;20117;-46
2022/07/02 20:23:09;;;;;;;1.60;1.33;;;21.70;53.50;;;17.96;74.57;95770.41;4990911;28;20033;-49
2022/07/02 20:25:36;;;;;;;3.72;1.73;;;21.70;53.80;;;17.89;74.91;95774.59;4987283;28;20072;-45
2022/07/02 20:28:02;;;;;;;4.93;1.80;;;21.60;54.00;;;17.83;74.94;95775.84;4973420;28;20045;-50
2022/07/02 20:30:28;;;;;;;1.60;1.50;;;21.50;54.20;;;17.76;75.57;95768.16;4971711;28;20116;-45
2022/07/02 20:32:54;;;;;;;4.28;1.95;;;21.50;54.40;;;17.73;75.28;95780.31;4982368;28;20396;-44
2022/07/02 20:35:20;;;;;;;2.45;1.92;;;21.40;54.60;;;17.72;75.17;95783.34;4970276;28;20022;-45
2022/07/02 20:37:46;;;;;;;2.22;1.90;;;21.40;54.80;;;17.72;75.13;95780.66;4937884;28;20038;-44
2022/07/02 20:40:13;;;;;;;3.90;2.00;;;21.30;54.90;;;17.68;75.02;95779.66;4971403;28;20024;-47
2022/07/02 20:42:40;;;;;;;2.97;1.85;;;21.30;55.10;;;17.66;74.85;95779.16;4969557;28;20441;-46
2022/07/02 20:45:07;;;;;;;5.13;2.10;;;21.30;55.20;;;17.62;75.15;95784.38;4975180;28;20026;-46
2022/07/02 20:47:37;;;;;;;1.77;1.63;;;21.20;55.30;;;17.59;75.11;95776.91;4996192;28;20045;-45
2022/07/02 20:50:04;;;;;;;2.67;1.73;;;21.20;55.50;;;17.56;75.23;95782.91;4975996;28;20045;-49
2022/07/02 20:52:39;;;;;;;2.75;2.00;;;21.10;55.50;;;17.51;75.56;95785.69;4974427;28;20037;-48
2022/07/02 20:55:06;;;;;;;3.03;2.00;;;21.10;55.80;;;17.46;75.94;95786.63;4991151;28;20026;-49
2022/07/02 20:57:34;;;;;;;1.65;1.50;;;21.10;55.80;;;17.43;75.37;95781.84;4990597;28;20572;-49
2022/07/02 21:00:00;;;;;;;2.10;1.77;;;21.10;55.90;;;17.40;75.48;95787.81;4990932;28;20025;-47
2022/07/02 21:02:26;;;;;;;3.67;1.77;;;21.00;56.50;;;17.37;76.00;95788.44;4955952;28;20038;-54
2022/07/02 21:04:55;;;;;;;3.58;1.80;;;21.00;56.00;;;17.34;76.20;95789.03;4977687;28;20037;-48
2022/07/02 21:07:21;;;;;;;2.20;1.70;;;21.00;56.30;;;17.30;76.18;95783.47;4986315;28;20034;-49
2022/07/02 21:09:49;;;;;;;4.13;1.85;;;20.90;56.20;;;17.21;76.88;95793.34;4977638;28;20111;-48
2022/07/02 21:12:15;;;;;;;1.90;1.70;;;20.90;56.40;;;17.14;77.29;95795.63;4970883;28;20029;-47
2022/07/02 21:14:44;;;;;;;2.17;1.58;;;20.80;56.50;;;17.09;77.99;95795.75;4981754;28;20040;-46
2022/07/02 21:20:03;;;;;;;2.35;1.70;;;20.70;57.10;;;16.94;78.82;95794.16;4976797;28;20177;-45
2022/07/02 21:22:29;;;;;;;2.63;1.58;;;20.70;57.00;;;16.92;79.07;95804.41;4953394;28;20034;-54
